createdAt,value
2023-05-01T00:02:24.041Z,7.45
2023-05-01T00:04:50.700Z,7.63
2023-05-01T00:07:17.498Z,6.88
2023-05-01T00:09:44.018Z,8.10
2023-05-01T00:12:11.573Z,8.93
2023-05-01T00:14:38.054Z,7.65
2023-05-01T00:17:04.587Z,7.68
2023-05-01T00:19:31.094Z,7.40
2023-05-01T00:21:57.547Z,7.07
2023-05-01T00:24:24.229Z,8.35
2023-05-01T00:26:50.696Z,8.30
2023-05-01T00:29:17.282Z,7.95
2023-05-01T00:31:44.061Z,8.20
2023-05-01T00:34:11.589Z,7.50
2023-05-01T00:36:39.443Z,7.93
2023-05-01T00:39:07.910Z,7.53
2023-05-01T00:41:35.091Z,7.00
2023-05-01T00:44:01.806Z,9.15
2023-05-01T00:46:30.521Z,10.15
2023-05-01T00:48:58.972Z,8.43
2023-05-01T00:51:29.114Z,7.75
2023-05-01T00:53:56.456Z,9.15
2023-05-01T00:56:23.031Z,8.52
2023-05-01T00:58:54.242Z,8.23
2023-05-01T01:01:21.780Z,9.88
2023-05-01T01:03:48.810Z,9.88
2023-05-01T01:06:21.387Z,9.90
2023-05-01T01:09:09.150Z,8.05
2023-05-01T01:11:48.714Z,9.23
2023-05-01T01:14:25.681Z,9.15
2023-05-01T01:16:59.463Z,10.38
2023-05-01T01:20:04.027Z,8.85
2023-05-01T01:22:32.289Z,9.20
2023-05-01T01:24:59.277Z,8.65
2023-05-01T01:28:03.999Z,9.50
2023-05-01T01:30:56.777Z,9.43
2023-05-01T01:33:58.087Z,11.48
2023-05-01T01:36:46.761Z,10.15
2023-05-01T01:39:31.933Z,9.05
2023-05-01T01:42:00.381Z,8.60
2023-05-01T01:44:41.972Z,9.65
2023-05-01T01:47:12.290Z,9.85
2023-05-01T01:49:44.659Z,9.25
2023-05-01T01:52:14.279Z,11.05
2023-05-01T01:54:50.594Z,9.50
2023-05-01T01:57:19.471Z,9.90
2023-05-01T01:59:47.508Z,8.85
2023-05-01T02:02:17.354Z,8.38
2023-05-01T02:04:45.442Z,11.50
2023-05-01T02:07:14.377Z,9.45
2023-05-01T02:09:42.150Z,8.68
2023-05-01T02:12:09.881Z,11.80
2023-05-01T02:14:38.708Z,10.10
2023-05-01T02:17:06.324Z,10.95
2023-05-01T02:19:34.486Z,12.68
2023-05-01T02:22:03.007Z,11.88
2023-05-01T02:24:32.069Z,11.05
2023-05-01T02:27:08.446Z,10.95
2023-05-01T02:29:35.961Z,9.52
2023-05-01T02:32:02.989Z,8.45
2023-05-01T02:34:29.533Z,10.07
2023-05-01T02:36:56.188Z,11.57
2023-05-01T02:39:22.862Z,10.23
2023-05-01T02:41:51.287Z,10.23
2023-05-01T02:44:19.042Z,10.75
2023-05-01T02:46:48.477Z,11.10
2023-05-01T02:49:17.917Z,10.68
2023-05-01T02:51:46.932Z,10.70
2023-05-01T02:54:13.979Z,10.35
2023-05-01T02:56:40.479Z,9.90
2023-05-01T02:59:07.096Z,9.05
2023-05-01T03:01:34.036Z,10.07
2023-05-01T03:04:01.150Z,9.98
2023-05-01T03:06:29.303Z,10.75
2023-05-01T03:08:55.831Z,10.00
2023-05-01T03:11:24.468Z,12.27
2023-05-01T03:13:51.316Z,11.13
2023-05-01T03:16:17.868Z,11.27
2023-05-01T03:18:44.432Z,11.40
2023-05-01T03:21:12.741Z,12.63
2023-05-01T03:23:39.310Z,9.45
2023-05-01T03:26:06.731Z,11.57
2023-05-01T03:28:33.382Z,10.68
2023-05-01T03:30:59.961Z,10.77
2023-05-01T03:33:26.744Z,11.38
2023-05-01T03:36:05.699Z,9.73
2023-05-01T03:38:32.284Z,10.20
2023-05-01T03:40:59.953Z,11.50
2023-05-01T03:43:26.589Z,10.40
2023-05-01T03:45:53.244Z,11.07
2023-05-01T03:48:20.304Z,11.23
2023-05-01T03:50:47.707Z,10.75
2023-05-01T03:53:14.694Z,10.50
2023-05-01T03:55:41.223Z,11.45
2023-05-01T03:58:07.887Z,12.48
2023-05-01T04:00:34.534Z,10.18
2023-05-01T04:03:01.260Z,10.63
2023-05-01T04:05:27.872Z,9.95
2023-05-01T04:07:54.391Z,11.07
2023-05-01T04:10:20.898Z,10.77
2023-05-01T04:12:47.345Z,10.55
2023-05-01T04:15:15.494Z,10.95
2023-05-01T04:17:43.858Z,11.93
2023-05-01T04:20:11.092Z,13.73
2023-05-01T04:22:37.990Z,10.60
2023-05-01T04:25:04.840Z,10.75
2023-05-01T04:27:31.775Z,13.50
2023-05-01T04:29:58.817Z,10.48
2023-05-01T04:32:29.546Z,13.05
2023-05-01T04:34:56.283Z,10.18
2023-05-01T04:37:22.746Z,10.13
2023-05-01T04:39:49.303Z,10.10
2023-05-01T04:42:15.845Z,11.63
2023-05-01T04:44:42.892Z,11.88
2023-05-01T04:47:09.523Z,9.80
2023-05-01T04:49:36.075Z,10.43
2023-05-01T04:52:02.620Z,9.70
2023-05-01T04:54:29.187Z,10.70
2023-05-01T04:56:55.826Z,14.57
2023-05-01T04:59:22.332Z,10.23
2023-05-01T05:01:48.845Z,10.10
2023-05-01T05:04:15.379Z,10.40
2023-05-01T05:06:41.880Z,10.88
2023-05-01T05:09:08.592Z,10.02
2023-05-01T05:11:35.228Z,9.02
2023-05-01T05:14:01.718Z,10.50
2023-05-01T05:16:28.319Z,10.00
2023-05-01T05:18:58.007Z,11.88
2023-05-01T05:21:24.528Z,10.57
2023-05-01T05:23:51.183Z,10.00
2023-05-01T05:26:18.618Z,9.98
2023-05-01T05:28:45.660Z,11.80
2023-05-01T05:31:12.616Z,9.07
2023-05-01T05:33:39.367Z,11.18
2023-05-01T05:36:06.762Z,11.90
2023-05-01T05:38:33.331Z,12.43
2023-05-01T05:41:00.989Z,10.75
2023-05-01T05:43:28.269Z,12.18
2023-05-01T05:46:01.072Z,12.10
2023-05-01T05:48:27.947Z,13.30
2023-05-01T05:50:54.614Z,12.93
2023-05-01T05:53:22.457Z,13.70
2023-05-01T05:55:50.862Z,13.15
2023-05-01T05:58:20.068Z,13.70
2023-05-01T06:00:48.439Z,13.55
2023-05-01T06:03:16.200Z,12.13
2023-05-01T06:05:43.837Z,16.17
2023-05-01T06:08:10.531Z,11.13
2023-05-01T06:10:39.799Z,12.77
2023-05-01T06:13:13.977Z,12.93
2023-05-01T06:15:41.531Z,11.70
2023-05-01T06:18:08.316Z,13.60
2023-05-01T06:20:35.535Z,12.80
2023-05-01T06:23:02.016Z,12.93
2023-05-01T06:25:28.615Z,13.88
2023-05-01T06:27:55.087Z,13.70
2023-05-01T06:30:21.984Z,15.80
2023-05-01T06:32:48.976Z,13.40
2023-05-01T06:35:15.660Z,15.02
2023-05-01T06:37:42.326Z,14.50
2023-05-01T06:40:09.876Z,13.20
2023-05-01T06:42:39.699Z,14.00
2023-05-01T06:45:07.620Z,10.70
2023-05-01T06:47:34.425Z,12.00
2023-05-01T06:50:03.648Z,11.93
2023-05-01T06:52:31.674Z,14.13
2023-05-01T06:54:58.125Z,11.05
2023-05-01T06:57:24.628Z,12.80
2023-05-01T06:59:51.081Z,12.90
2023-05-01T07:02:18.516Z,12.43
2023-05-01T07:04:45.291Z,14.73
2023-05-01T07:07:12.185Z,12.88
2023-05-01T07:09:38.890Z,16.15
2023-05-01T07:12:06.379Z,12.82
2023-05-01T07:14:35.842Z,13.05
2023-05-01T07:17:03.237Z,12.65
2023-05-01T07:19:29.802Z,15.50
2023-05-01T07:21:56.411Z,14.60
2023-05-01T07:24:22.993Z,16.85
2023-05-01T07:26:49.770Z,12.55
2023-05-01T07:29:16.631Z,12.98
2023-05-01T07:31:45.863Z,12.98
2023-05-01T07:34:12.954Z,13.15
2023-05-01T07:36:39.641Z,11.57
2023-05-01T07:39:08.225Z,13.23
2023-05-01T07:41:34.757Z,12.38
2023-05-01T07:44:01.650Z,15.52
2023-05-01T07:46:28.286Z,13.57
2023-05-01T07:48:54.946Z,14.32
2023-05-01T07:51:22.023Z,12.35
2023-05-01T07:53:49.336Z,12.40
2023-05-01T07:56:16.853Z,13.70
2023-05-01T07:58:44.034Z,15.27
2023-05-01T08:01:10.784Z,16.70
2023-05-01T08:03:37.951Z,10.27
2023-05-01T08:06:05.334Z,11.82
2023-05-01T08:08:31.904Z,13.23
2023-05-01T08:10:58.431Z,10.68
2023-05-01T08:13:25.037Z,10.13
2023-05-01T08:15:52.542Z,13.48
2023-05-01T08:18:21.683Z,13.88
2023-05-01T08:20:48.743Z,10.07
2023-05-01T08:23:17.034Z,10.25
2023-05-01T08:25:46.758Z,11.30
2023-05-01T08:28:14.804Z,9.90
2023-05-01T08:30:41.333Z,10.60
2023-05-01T08:33:07.923Z,12.93
2023-05-01T08:35:34.471Z,13.02
2023-05-01T08:38:02.338Z,10.63
2023-05-01T08:40:33.304Z,11.45
2023-05-01T08:43:02.296Z,10.07
2023-05-01T08:45:31.141Z,9.65
2023-05-01T08:47:58.949Z,9.88
2023-05-01T08:50:27.532Z,10.35
2023-05-01T08:52:56.126Z,10.02
2023-05-01T08:55:23.483Z,9.40
2023-05-01T08:57:51.530Z,9.43
2023-05-01T09:00:20.174Z,10.18
2023-05-01T09:02:49.425Z,10.65
2023-05-01T09:05:17.341Z,9.25
2023-05-01T09:07:48.562Z,9.00
2023-05-01T09:10:19.142Z,9.85
2023-05-01T09:12:49.668Z,9.00
2023-05-01T09:15:16.645Z,9.95
2023-05-01T09:17:44.978Z,9.18
2023-05-01T09:20:11.991Z,8.55
2023-05-01T09:22:38.868Z,8.60
2023-05-01T09:25:05.952Z,8.75
2023-05-01T09:27:35.824Z,9.50
2023-05-01T09:30:06.040Z,9.13
2023-05-01T09:32:32.717Z,10.25
2023-05-01T09:35:14.018Z,8.98
2023-05-01T09:37:41.267Z,9.75
2023-05-01T09:40:12.802Z,12.95
2023-05-01T09:45:17.478Z,9.05
2023-05-01T09:47:45.719Z,8.15
2023-05-01T09:50:33.644Z,8.52
2023-05-01T09:53:05.247Z,9.52
2023-05-01T09:58:01.518Z,10.55
2023-05-01T10:00:28.010Z,8.45
2023-05-01T10:02:55.012Z,9.60
2023-05-01T10:05:22.998Z,7.90
2023-05-01T10:07:59.539Z,9.07
2023-05-01T10:10:26.311Z,9.52
2023-05-01T10:12:53.012Z,8.25
2023-05-01T10:15:25.966Z,9.43
2023-05-01T10:17:53.993Z,7.93
2023-05-01T10:20:21.164Z,8.45
2023-05-01T10:22:48.885Z,13.35
2023-05-01T10:25:17.435Z,11.00
2023-05-01T10:27:44.049Z,8.93
2023-05-01T10:30:11.408Z,8.82
2023-05-01T10:32:41.862Z,10.85
2023-05-01T10:35:19.524Z,8.70
2023-05-01T10:37:58.597Z,8.32
2023-05-01T10:40:40.634Z,7.72
2023-05-01T10:43:19.590Z,10.43
2023-05-01T10:45:48.537Z,7.55
2023-05-01T10:48:37.845Z,8.10
2023-05-01T10:51:15.510Z,8.63
2023-05-01T10:53:43.436Z,9.18
2023-05-01T10:56:24.139Z,9.65
2023-05-01T10:58:53.725Z,9.20
2023-05-01T11:01:29.198Z,7.47
2023-05-01T11:03:56.881Z,8.50
2023-05-01T11:06:24.287Z,8.27
2023-05-01T11:08:51.059Z,8.82
2023-05-01T11:11:21.354Z,9.85
2023-05-01T11:14:05.014Z,8.45
2023-05-01T11:16:41.880Z,9.35
2023-05-01T11:19:31.584Z,7.60
2023-05-01T11:21:58.308Z,8.40
2023-05-01T11:24:33.958Z,7.53
2023-05-01T11:27:01.308Z,8.13
2023-05-01T11:29:33.111Z,8.90
2023-05-01T11:32:00.808Z,7.25
2023-05-01T11:34:28.103Z,8.20
2023-05-01T11:36:54.616Z,7.45
2023-05-01T11:39:22.193Z,7.93
2023-05-01T11:41:48.856Z,8.02
2023-05-01T11:44:17.546Z,7.22
2023-05-01T11:46:44.449Z,8.35
2023-05-01T11:49:11.518Z,8.82
2023-05-01T11:51:38.044Z,10.50
2023-05-01T11:54:16.222Z,8.25
2023-05-01T11:56:42.906Z,7.85
2023-05-01T11:59:18.933Z,7.63
2023-05-01T12:01:46.699Z,8.40
2023-05-01T12:04:23.023Z,7.70
2023-05-01T12:06:50.378Z,9.15
2023-05-01T12:09:18.002Z,8.38
2023-05-01T12:11:46.165Z,7.88
2023-05-01T12:14:18.116Z,7.72
2023-05-01T12:16:45.210Z,7.57
2023-05-01T12:19:14.927Z,9.82
2023-05-01T12:21:41.920Z,8.10
2023-05-01T12:24:10.728Z,8.57
2023-05-01T12:40:33.419Z,8.65
2023-05-01T12:43:00.605Z,7.80
2023-05-01T12:45:29.291Z,7.85
2023-05-01T12:47:55.957Z,8.73
2023-05-01T12:50:22.697Z,7.60
2023-05-01T12:52:49.357Z,8.65
2023-05-01T12:55:16.376Z,8.63
2023-05-01T12:57:54.361Z,8.88
2023-05-01T13:00:21.254Z,7.80
2023-05-01T13:02:48.858Z,8.35
2023-05-01T13:05:15.502Z,8.32
2023-05-01T13:07:48.347Z,8.02
2023-05-01T13:10:19.864Z,8.07
2023-05-01T13:15:21.726Z,8.65
2023-05-01T13:17:48.522Z,10.25
2023-05-01T13:20:26.938Z,8.20
2023-05-01T13:22:53.706Z,8.18
2023-05-01T13:25:26.720Z,7.47
2023-05-01T13:27:54.157Z,7.50
2023-05-01T13:30:30.972Z,8.38
2023-05-01T13:32:57.523Z,7.53
2023-05-01T13:35:35.797Z,7.30
2023-05-01T13:38:03.492Z,7.93
2023-05-01T13:40:34.234Z,7.93
2023-05-01T13:43:00.966Z,8.13
2023-05-01T13:45:27.741Z,9.38
2023-05-01T13:47:56.618Z,8.80
2023-05-01T13:50:23.174Z,9.07
2023-05-01T13:52:49.697Z,9.90
2023-05-01T13:55:17.595Z,10.52
2023-05-01T13:57:46.251Z,9.55
2023-05-01T14:00:18.695Z,9.23
2023-05-01T14:02:48.702Z,8.70
2023-05-01T14:05:16.299Z,10.10
2023-05-01T14:07:55.145Z,9.23
2023-05-01T14:10:23.084Z,10.05
2023-05-01T14:12:58.847Z,9.35
2023-05-01T14:15:25.903Z,11.05
2023-05-01T14:17:55.613Z,8.45
2023-05-01T14:20:25.436Z,9.38
2023-05-01T14:22:53.379Z,11.10
2023-05-01T14:25:31.283Z,9.60
2023-05-01T14:27:59.535Z,9.27
2023-05-01T14:30:33.821Z,9.45
2023-05-01T14:33:09.517Z,10.38
2023-05-01T14:35:43.811Z,9.88
2023-05-01T14:38:13.405Z,9.98
2023-05-01T14:40:41.897Z,9.88
2023-05-01T14:43:13.527Z,9.18
2023-05-01T14:45:49.794Z,8.95
2023-05-01T14:48:30.127Z,9.82
2023-05-01T14:50:58.042Z,9.50
2023-05-01T14:53:27.360Z,10.57
2023-05-01T14:55:55.240Z,10.07
2023-05-01T14:58:22.478Z,9.75
2023-05-01T15:00:49.012Z,9.23
2023-05-01T15:03:15.638Z,9.82
2023-05-01T15:05:42.221Z,9.98
2023-05-01T15:08:09.344Z,11.23
2023-05-01T15:10:36.027Z,9.10
2023-05-01T15:13:09.340Z,8.75
2023-05-01T15:15:36.491Z,8.80
2023-05-01T15:18:04.127Z,9.75
2023-05-01T15:20:31.354Z,9.85
2023-05-01T15:22:58.822Z,11.35
2023-05-01T15:25:25.312Z,9.23
2023-05-01T15:27:51.954Z,9.27
2023-05-01T15:30:18.477Z,8.63
2023-05-01T15:32:45.232Z,10.70
2023-05-01T15:35:16.628Z,10.25
2023-05-01T15:37:46.187Z,10.50
2023-05-01T15:40:13.041Z,9.20
2023-05-01T15:42:48.131Z,9.38
2023-05-01T15:45:15.733Z,11.10
2023-05-01T15:47:42.995Z,11.18
2023-05-01T15:50:13.625Z,9.80
2023-05-01T15:52:40.370Z,9.55
2023-05-01T15:55:07.404Z,9.32
2023-05-01T15:57:35.936Z,10.65
2023-05-01T16:00:09.393Z,9.55
2023-05-01T16:02:35.992Z,9.48
2023-05-01T16:05:05.569Z,10.23
2023-05-01T16:07:33.915Z,11.80
2023-05-01T16:10:00.794Z,9.45
2023-05-01T16:12:28.806Z,9.57
2023-05-01T16:14:55.521Z,10.32
2023-05-01T16:17:22.499Z,10.02
2023-05-01T16:19:49.573Z,11.00
2023-05-01T16:22:16.870Z,12.35
2023-05-01T16:24:43.618Z,11.68
2023-05-01T16:27:13.142Z,13.07
2023-05-01T16:29:39.812Z,13.35
2023-05-01T16:32:11.354Z,13.30
2023-05-01T16:34:40.115Z,10.95
2023-05-01T16:37:06.682Z,10.77
2023-05-01T16:40:15.097Z,13.13
2023-05-01T16:42:42.419Z,11.40
2023-05-01T16:45:09.517Z,12.02
2023-05-01T16:47:36.609Z,12.60
2023-05-01T16:50:07.431Z,11.88
2023-05-01T16:52:33.889Z,11.60
2023-05-01T16:55:28.087Z,11.02
2023-05-01T16:57:54.555Z,11.70
2023-05-01T17:00:24.356Z,9.70
2023-05-01T17:02:52.393Z,10.82
2023-05-01T17:05:21.996Z,9.80
2023-05-01T17:07:48.608Z,11.10
2023-05-01T17:10:16.222Z,11.70
2023-05-01T17:12:42.770Z,10.98
2023-05-01T17:15:09.892Z,11.48
2023-05-01T17:17:39.194Z,11.30
2023-05-01T17:20:07.500Z,10.18
2023-05-01T17:22:34.988Z,9.65
2023-05-01T17:25:03.007Z,10.25
2023-05-01T17:27:37.846Z,9.50
2023-05-01T17:30:06.037Z,10.25
2023-05-01T17:32:37.034Z,11.75
2023-05-01T17:35:04.995Z,13.55
2023-05-01T17:37:31.673Z,11.25
2023-05-01T17:39:58.359Z,10.48
2023-05-01T17:42:24.933Z,10.43
2023-05-01T17:44:51.358Z,13.00
2023-05-01T17:47:17.922Z,14.77
2023-05-01T17:49:44.407Z,13.40
2023-05-01T17:52:11.178Z,10.23
2023-05-01T17:54:38.521Z,15.02
2023-05-01T17:57:05.370Z,11.15
2023-05-01T17:59:31.900Z,10.73
2023-05-01T18:01:58.514Z,10.30
2023-05-01T18:04:25.159Z,10.70
2023-05-01T18:06:51.723Z,10.23
2023-05-01T18:09:25.437Z,9.25
2023-05-01T18:11:51.882Z,10.13
2023-05-01T18:14:18.828Z,9.90
2023-05-01T18:16:45.423Z,11.52
2023-05-01T18:19:11.930Z,10.07
2023-05-01T18:21:38.911Z,9.43
2023-05-01T18:24:06.793Z,10.25
2023-05-01T18:26:33.541Z,9.10
2023-05-01T18:29:00.735Z,9.82
2023-05-01T18:31:27.428Z,10.60
2023-05-01T18:34:01.603Z,9.50
2023-05-01T18:36:28.455Z,9.40
2023-05-01T18:38:55.761Z,9.95
2023-05-01T18:41:25.769Z,10.68
2023-05-01T18:43:55.552Z,9.35
2023-05-01T18:46:30.855Z,11.02
2023-05-01T18:48:57.329Z,11.80
2023-05-01T18:51:23.883Z,10.55
2023-05-01T18:53:50.368Z,11.45
2023-05-01T18:56:17.407Z,8.70
2023-05-01T18:58:43.940Z,9.70
2023-05-01T19:01:10.449Z,11.07
2023-05-01T19:03:37.025Z,10.30
2023-05-01T19:06:03.743Z,10.38
2023-05-01T19:08:31.698Z,9.57
2023-05-01T19:10:58.535Z,9.30
2023-05-01T19:13:25.053Z,9.93
2023-05-01T19:15:51.581Z,10.40
2023-05-01T19:18:18.172Z,9.43
2023-05-01T19:20:45.872Z,9.02
2023-05-01T19:23:12.521Z,9.77
2023-05-01T19:25:38.974Z,9.82
2023-05-01T19:28:05.448Z,9.38
2023-05-01T19:30:31.933Z,9.63
2023-05-01T19:33:06.643Z,9.15
2023-05-01T19:35:33.145Z,9.77
2023-05-01T19:38:03.804Z,11.98
2023-05-01T19:40:30.319Z,11.98
2023-05-01T19:42:56.841Z,10.60
2023-05-01T19:45:23.308Z,11.82
2023-05-01T19:47:49.812Z,10.13
2023-05-01T19:50:19.122Z,9.65
2023-05-01T19:52:45.620Z,8.40
2023-05-01T19:55:18.107Z,9.30
2023-05-01T19:57:44.716Z,9.10
2023-05-01T20:00:14.554Z,9.57
2023-05-01T20:02:43.383Z,8.50
2023-05-01T20:05:10.874Z,10.40
2023-05-01T20:07:37.348Z,8.50
2023-05-01T20:10:04.998Z,8.90
2023-05-01T20:12:32.490Z,8.18
2023-05-01T20:15:03.130Z,9.13
2023-05-01T20:17:31.650Z,10.07
2023-05-01T20:20:00.400Z,8.50
2023-05-01T20:22:27.165Z,8.82
2023-05-01T20:24:53.673Z,9.68
2023-05-01T20:27:20.222Z,9.23
2023-05-01T20:29:46.800Z,9.32
2023-05-01T20:32:13.484Z,9.32
2023-05-01T20:34:39.942Z,8.93
2023-05-01T20:37:06.974Z,9.65
2023-05-01T20:39:33.423Z,9.60
2023-05-01T20:42:00.860Z,9.30
2023-05-01T20:44:27.745Z,9.77
2023-05-01T20:46:54.238Z,11.18
2023-05-01T20:49:36.921Z,9.02
2023-05-01T20:52:03.374Z,9.25
2023-05-01T20:54:32.692Z,10.30
2023-05-01T20:57:00.035Z,9.68
2023-05-01T20:59:26.669Z,11.63
2023-05-01T21:01:53.249Z,10.65
2023-05-01T21:04:22.221Z,10.00
2023-05-01T21:06:48.861Z,10.07
2023-05-01T21:09:16.591Z,10.35
2023-05-01T21:11:43.034Z,10.60
2023-05-01T21:14:09.574Z,9.48
2023-05-01T21:16:45.195Z,11.85
2023-05-01T21:19:12.972Z,10.45
2023-05-01T21:21:39.494Z,10.05
2023-05-01T21:24:07.802Z,8.88
2023-05-01T21:26:34.684Z,9.70
2023-05-01T21:29:01.200Z,9.60
2023-05-01T21:31:31.238Z,9.93
2023-05-01T21:34:02.535Z,10.07
2023-05-01T21:36:29.386Z,10.48
2023-05-01T21:38:56.486Z,9.95
2023-05-01T21:41:22.993Z,10.30
2023-05-01T21:43:49.531Z,10.35
2023-05-01T21:46:18.508Z,9.90
2023-05-01T21:48:53.356Z,9.13
2023-05-01T21:51:26.977Z,10.63
2023-05-01T21:53:53.429Z,11.07
2023-05-01T21:56:23.497Z,10.80
2023-05-01T21:58:51.208Z,10.60
2023-05-01T22:01:20.982Z,10.32
2023-05-01T22:03:48.376Z,11.10
2023-05-01T22:06:15.006Z,10.25
2023-05-01T22:08:42.782Z,9.70
2023-05-01T22:11:09.687Z,11.30
2023-05-01T22:13:36.204Z,10.85
2023-05-01T22:16:02.905Z,10.38
2023-05-01T22:18:35.680Z,10.68
2023-05-01T22:21:03.462Z,11.60
2023-05-01T22:23:29.968Z,10.57
2023-05-01T22:26:01.165Z,9.77
2023-05-01T22:28:27.735Z,10.55
2023-05-01T22:30:54.528Z,10.55
2023-05-01T22:33:21.158Z,10.50
2023-05-01T22:35:48.788Z,11.40
2023-05-01T22:38:15.243Z,11.75
2023-05-01T22:40:42.482Z,11.43
2023-05-01T22:43:11.007Z,10.77
2023-05-01T22:45:38.694Z,11.88
2023-05-01T22:48:07.349Z,10.55
2023-05-01T22:50:34.725Z,10.07
2023-05-01T22:53:01.493Z,11.68
2023-05-01T22:55:28.362Z,11.20
2023-05-01T22:57:54.860Z,12.63
2023-05-01T23:00:22.225Z,12.68
2023-05-01T23:02:48.804Z,12.98
2023-05-01T23:05:15.617Z,10.77
2023-05-01T23:07:48.478Z,11.68
2023-05-01T23:10:15.454Z,12.65
2023-05-01T23:12:44.434Z,12.98
2023-05-01T23:15:13.713Z,11.82
2023-05-01T23:17:40.377Z,10.35
2023-05-01T23:20:09.392Z,12.18
2023-05-01T23:22:40.433Z,10.65
2023-05-01T23:25:07.600Z,12.63
2023-05-01T23:27:37.809Z,11.13
2023-05-01T23:32:33.594Z,10.85
2023-05-01T23:35:04.883Z,12.35
2023-05-01T23:37:39.611Z,10.65
2023-05-01T23:40:07.242Z,10.43
2023-05-01T23:42:35.413Z,10.93
2023-05-01T23:45:02.105Z,11.20
2023-05-01T23:47:29.664Z,12.70
2023-05-01T23:49:56.624Z,12.52
2023-05-01T23:52:23.312Z,13.93
2023-05-01T23:54:49.893Z,11.05
2023-05-01T23:57:16.491Z,10.70
2023-05-01T23:59:48.798Z,10.57
